createdAt,value
2018-11-28T00:01:14.394Z,14.93
2018-11-28T00:03:42.618Z,16.93
2018-11-28T00:06:11.784Z,16.50
2018-11-28T00:08:40.096Z,14.97
2018-11-28T00:11:08.384Z,17.23
2018-11-28T00:13:36.656Z,17.67
2018-11-28T00:16:05.827Z,17.97
2018-11-28T00:18:34.005Z,15.17
2018-11-28T00:21:02.213Z,16.23
2018-11-28T00:23:30.415Z,15.77
2018-11-28T00:25:58.921Z,16.27
2018-11-28T00:28:26.943Z,15.90
2018-11-28T00:30:55.731Z,17.87
2018-11-28T00:33:23.974Z,17.63
2018-11-28T00:35:52.320Z,14.83
2018-11-28T00:38:20.500Z,16.97
2018-11-28T00:40:48.785Z,16.07
2018-11-28T00:43:17.068Z,15.33
2018-11-28T00:45:45.318Z,17.97
2018-11-28T00:48:13.502Z,17.63
2018-11-28T00:50:41.757Z,17.93
2018-11-28T00:53:10.028Z,17.93
2018-11-28T00:55:39.325Z,17.57
2018-11-28T00:58:07.614Z,15.33
2018-11-28T01:00:35.845Z,16.97
2018-11-28T01:03:04.071Z,19.17
2018-11-28T01:05:32.245Z,17.70
2018-11-28T01:08:00.432Z,19.50
2018-11-28T01:10:28.639Z,19.43
2018-11-28T01:12:56.836Z,17.30
2018-11-28T01:15:25.004Z,18.20
2018-11-28T01:17:53.239Z,18.47
2018-11-28T01:20:22.728Z,18.23
2018-11-28T01:22:50.958Z,21.10
2018-11-28T01:25:20.808Z,15.60
2018-11-28T01:27:50.360Z,21.47
2018-11-28T01:30:21.860Z,21.57
2018-11-28T01:32:50.124Z,18.93
2018-11-28T01:35:19.260Z,20.73
2018-11-28T01:37:48.603Z,19.00
2018-11-28T01:40:19.652Z,19.07
2018-11-28T01:42:47.948Z,18.67
2018-11-28T01:45:17.094Z,17.27
2018-11-28T01:47:45.372Z,21.73
2018-11-28T01:50:14.429Z,20.00
2018-11-28T01:52:42.603Z,18.47
2018-11-28T01:55:12.514Z,19.90
2018-11-28T01:57:40.679Z,18.33
2018-11-28T02:00:11.424Z,17.03
2018-11-28T02:02:39.689Z,19.03
2018-11-28T02:05:08.798Z,17.63
2018-11-28T02:07:37.048Z,19.67
2018-11-28T02:10:11.607Z,17.23
2018-11-28T02:12:39.964Z,17.67
2018-11-28T02:15:10.834Z,14.87
2018-11-28T02:17:39.015Z,17.83
2018-11-28T02:20:10.204Z,18.33
2018-11-28T02:22:38.388Z,14.87
2018-11-28T02:25:07.692Z,18.30
2018-11-28T02:27:35.868Z,16.83
2018-11-28T02:30:05.492Z,16.47
2018-11-28T02:32:33.663Z,19.60
2018-11-28T02:35:01.849Z,17.90
2018-11-28T02:37:30.057Z,18.00
2018-11-28T02:39:58.267Z,17.37
2018-11-28T02:42:26.465Z,18.60
2018-11-28T02:44:54.661Z,16.83
2018-11-28T02:47:22.866Z,17.17
2018-11-28T02:49:51.063Z,16.77
2018-11-28T02:52:19.240Z,16.43
2018-11-28T02:54:47.445Z,18.93
2018-11-28T02:57:15.613Z,17.87
2018-11-28T02:59:43.827Z,18.40
2018-11-28T03:02:12.004Z,16.43
2018-11-28T03:04:40.189Z,19.33
2018-11-28T03:07:08.376Z,17.53
2018-11-28T03:09:36.585Z,15.27
2018-11-28T03:12:05.127Z,14.43
2018-11-28T03:14:33.323Z,16.80
2018-11-28T03:17:01.507Z,16.13
2018-11-28T03:19:29.694Z,17.97
2018-11-28T03:21:57.868Z,18.67
2018-11-28T03:24:26.080Z,15.90
2018-11-28T03:26:54.260Z,17.90
2018-11-28T03:29:22.459Z,18.00
2018-11-28T03:31:50.650Z,18.40
2018-11-28T03:34:18.836Z,15.27
2018-11-28T03:36:47.006Z,17.80
2018-11-28T03:39:15.184Z,17.07
2018-11-28T03:41:43.380Z,15.33
2018-11-28T03:44:11.557Z,15.57
2018-11-28T03:46:39.768Z,16.10
2018-11-28T03:49:07.952Z,16.07
2018-11-28T03:51:36.159Z,17.03
2018-11-28T03:54:04.425Z,15.13
2018-11-28T03:56:32.613Z,14.90
2018-11-28T03:59:00.814Z,16.77
2018-11-28T04:01:29.009Z,18.77
2018-11-28T04:03:57.212Z,14.83
2018-11-28T04:06:25.396Z,16.93
2018-11-28T04:08:53.584Z,16.63
2018-11-28T04:11:21.774Z,16.23
2018-11-28T04:13:49.964Z,17.93
2018-11-28T04:16:18.156Z,17.23
2018-11-28T04:18:46.339Z,18.07
2018-11-28T04:21:14.534Z,17.80
2018-11-28T04:23:42.701Z,18.57
2018-11-28T04:26:10.900Z,15.00
2018-11-28T04:28:39.219Z,17.77
2018-11-28T04:31:07.424Z,16.93
2018-11-28T04:33:35.647Z,13.93
2018-11-28T04:36:03.905Z,17.40
2018-11-28T04:38:32.089Z,17.47
2018-11-28T04:41:00.297Z,15.73
2018-11-28T04:43:28.493Z,15.27
2018-11-28T04:45:56.745Z,16.17
2018-11-28T04:48:24.939Z,17.13
2018-11-28T04:50:53.148Z,14.47
2018-11-28T04:53:21.342Z,14.97
2018-11-28T04:55:49.538Z,15.23
2018-11-28T04:58:17.733Z,17.87
2018-11-28T05:00:46.020Z,15.30
2018-11-28T05:03:14.204Z,15.63
2018-11-28T05:05:42.397Z,16.37
2018-11-28T05:08:10.604Z,15.23
2018-11-28T05:10:38.860Z,16.43
2018-11-28T05:13:07.065Z,17.00
2018-11-28T05:15:35.267Z,19.23
2018-11-28T05:18:03.460Z,14.23
2018-11-28T05:20:33.688Z,15.67
2018-11-28T05:23:02.345Z,16.63
2018-11-28T05:25:30.674Z,16.37
2018-11-28T05:27:59.308Z,16.87
2018-11-28T05:30:29.417Z,14.63
2018-11-28T05:32:57.630Z,14.83
2018-11-28T05:35:29.570Z,17.73
2018-11-28T05:37:57.808Z,14.43
2018-11-28T05:40:26.847Z,16.33
2018-11-28T05:42:55.163Z,14.87
2018-11-28T05:45:23.400Z,14.77
2018-11-28T05:47:51.643Z,14.50
2018-11-28T05:50:21.681Z,16.93
2018-11-28T05:52:49.967Z,15.60
2018-11-28T05:55:19.265Z,16.13
2018-11-28T05:57:47.534Z,14.40
2018-11-28T06:00:37.152Z,16.00
2018-11-28T06:03:06.785Z,15.87
2018-11-28T06:05:35.037Z,15.43
2018-11-28T06:08:03.269Z,15.77
2018-11-28T06:10:31.468Z,15.27
2018-11-28T06:12:59.684Z,16.37
2018-11-28T06:15:27.888Z,16.00
2018-11-28T06:17:56.115Z,16.20
2018-11-28T06:20:24.356Z,15.90
2018-11-28T06:22:52.583Z,15.07
2018-11-28T06:25:20.775Z,16.00
2018-11-28T06:27:49.010Z,15.23
2018-11-28T06:30:19.092Z,15.20
2018-11-28T06:32:51.260Z,13.53
2018-11-28T06:35:15.664Z,13.77
2018-11-28T06:37:43.999Z,14.30
2018-11-28T06:40:14.256Z,17.33
2018-11-28T06:42:42.712Z,15.70
2018-11-28T06:45:12.084Z,13.10
2018-11-28T06:47:40.768Z,15.67
2018-11-28T06:50:13.892Z,15.63
2018-11-28T06:52:42.471Z,15.53
2018-11-28T06:55:12.704Z,14.73
2018-11-28T06:57:40.925Z,14.97
2018-11-28T07:00:11.628Z,14.67
2018-11-28T07:02:39.888Z,16.97
2018-11-28T07:05:08.114Z,20.70
2018-11-28T07:07:36.314Z,15.80
2018-11-28T07:10:05.681Z,15.20
2018-11-28T07:12:35.180Z,15.50
2018-11-28T07:15:04.640Z,15.30
2018-11-28T07:17:33.074Z,16.00
2018-11-28T07:20:01.597Z,14.37
2018-11-28T07:22:30.088Z,15.20
2018-11-28T07:24:58.606Z,17.17
2018-11-28T07:27:27.165Z,16.53
2018-11-28T07:29:55.708Z,14.97
2018-11-28T07:32:24.842Z,14.67
2018-11-28T07:34:54.060Z,13.77
2018-11-28T07:37:22.565Z,16.47
2018-11-28T07:39:51.023Z,16.03
2018-11-28T07:42:19.541Z,15.17
2018-11-28T07:44:48.503Z,16.07
2018-11-28T07:47:17.057Z,16.57
2018-11-28T07:49:45.582Z,14.57
2018-11-28T07:52:14.228Z,17.00
2018-11-28T07:54:42.763Z,14.73
2018-11-28T07:57:11.444Z,14.00
2018-11-28T07:59:40.285Z,14.07
2018-11-28T08:02:08.478Z,15.40
2018-11-28T08:04:37.135Z,15.33
2018-11-28T08:07:05.902Z,13.47
2018-11-28T08:09:35.336Z,15.00
2018-11-28T08:12:04.016Z,16.97
2018-11-28T08:14:32.547Z,16.43
2018-11-28T08:17:02.302Z,16.33
2018-11-28T08:19:30.667Z,16.93
2018-11-28T08:21:59.220Z,16.60
2018-11-28T08:24:27.411Z,14.93
2018-11-28T08:26:55.595Z,16.40
2018-11-28T08:29:24.036Z,16.50
2018-11-28T08:31:52.251Z,15.10
2018-11-28T08:34:20.444Z,14.97
2018-11-28T08:36:48.620Z,15.53
2018-11-28T08:39:16.879Z,16.57
2018-11-28T08:41:45.099Z,14.57
2018-11-28T08:44:13.300Z,15.87
2018-11-28T08:46:41.536Z,14.90
2018-11-28T08:49:09.862Z,16.63
2018-11-28T08:51:38.192Z,15.03
2018-11-28T08:54:06.563Z,15.17
2018-11-28T08:56:35.006Z,15.00
2018-11-28T08:59:03.571Z,15.43
2018-11-28T09:01:32.147Z,14.37
2018-11-28T09:04:00.345Z,16.70
2018-11-28T09:06:28.609Z,15.43
2018-11-28T09:08:56.999Z,14.93
2018-11-28T09:11:25.196Z,15.77
2018-11-28T09:13:53.509Z,14.03
2018-11-28T09:16:21.756Z,14.77
2018-11-28T09:18:50.100Z,14.90
2018-11-28T09:21:18.672Z,15.53
2018-11-28T09:23:47.843Z,13.83
2018-11-28T09:26:19.389Z,12.93
2018-11-28T09:28:48.112Z,14.20
2018-11-28T09:31:19.824Z,14.00
2018-11-28T09:33:48.045Z,15.20
2018-11-28T09:36:16.231Z,15.40
2018-11-28T09:38:44.841Z,13.63
2018-11-28T09:41:13.193Z,14.80
2018-11-28T09:43:41.418Z,14.67
2018-11-28T09:46:10.038Z,14.17
2018-11-28T09:48:38.313Z,13.53
2018-11-28T09:51:07.503Z,15.37
2018-11-28T09:53:36.769Z,14.07
2018-11-28T09:56:05.223Z,15.23
2018-11-28T09:58:33.430Z,15.03
2018-11-28T10:01:01.645Z,13.10
2018-11-28T10:03:29.829Z,13.00
2018-11-28T10:05:58.025Z,14.80
2018-11-28T10:08:26.224Z,13.80
2018-11-28T10:10:54.432Z,14.90
2018-11-28T10:13:22.667Z,15.23
2018-11-28T10:15:50.963Z,14.33
2018-11-28T10:18:19.292Z,15.77
2018-11-28T10:20:47.828Z,13.63
2018-11-28T10:23:16.031Z,13.43
2018-11-28T10:25:44.204Z,13.27
2018-11-28T10:28:12.416Z,12.63
2018-11-28T10:30:40.580Z,14.53
2018-11-28T10:33:09.889Z,14.50
2018-11-28T10:35:38.645Z,13.07
2018-11-28T10:38:07.312Z,12.83
2018-11-28T10:40:35.715Z,11.57
2018-11-28T10:43:04.084Z,12.70
2018-11-28T10:45:32.995Z,12.00
2018-11-28T10:48:01.262Z,12.87
2018-11-28T10:50:29.536Z,13.37
2018-11-28T10:52:57.781Z,12.73
2018-11-28T10:55:26.660Z,10.60
2018-11-28T10:57:54.891Z,11.03
2018-11-28T11:00:31.543Z,14.23
2018-11-28T11:03:05.567Z,13.57
2018-11-28T11:05:39.200Z,11.80
2018-11-28T11:08:12.872Z,13.37
2018-11-28T11:10:46.674Z,12.03
2018-11-28T11:13:20.551Z,13.43
2018-11-28T11:15:54.171Z,13.17
2018-11-28T11:18:22.367Z,13.23
2018-11-28T11:20:50.729Z,12.83
2018-11-28T11:23:19.067Z,11.73
2018-11-28T11:25:47.468Z,13.67
2018-11-28T11:28:15.876Z,14.13
2018-11-28T11:30:44.478Z,12.47
2018-11-28T11:33:12.755Z,12.43
2018-11-28T11:35:41.251Z,13.53
2018-11-28T11:38:09.455Z,12.27
2018-11-28T11:40:37.692Z,12.27
2018-11-28T11:43:06.208Z,12.60
2018-11-28T11:45:34.536Z,11.93
2018-11-28T11:48:02.792Z,12.27
2018-11-28T11:50:30.992Z,13.23
2018-11-28T11:52:59.224Z,10.87
2018-11-28T11:55:27.442Z,12.80
2018-11-28T11:57:55.789Z,12.23
2018-11-28T12:00:25.954Z,12.17
2018-11-28T12:03:02.587Z,14.37
2018-11-28T12:05:31.298Z,10.37
2018-11-28T12:07:59.248Z,11.37
2018-11-28T12:10:27.790Z,11.60
2018-11-28T12:12:56.179Z,12.70
2018-11-28T12:15:24.376Z,13.03
2018-11-28T12:17:53.272Z,12.73
2018-11-28T12:20:29.500Z,12.53
2018-11-28T12:22:57.802Z,12.70
2018-11-28T12:25:26.047Z,12.73
2018-11-28T12:27:54.549Z,10.33
2018-11-28T12:30:22.770Z,12.50
2018-11-28T12:32:51.000Z,11.80
2018-11-28T12:35:19.468Z,10.67
2018-11-28T12:37:47.748Z,12.17
2018-11-28T12:40:16.629Z,12.30
2018-11-28T12:42:47.573Z,10.43
2018-11-28T12:45:16.832Z,13.03
2018-11-28T12:47:46.092Z,11.13
2018-11-28T12:50:16.894Z,11.57
2018-11-28T12:52:45.173Z,11.23
2018-11-28T12:55:13.456Z,11.60
2018-11-28T12:57:41.760Z,11.93
2018-11-28T13:00:12.684Z,12.37
2018-11-28T13:02:40.917Z,9.33
2018-11-28T13:05:11.937Z,11.67
2018-11-28T13:07:40.368Z,10.20
2018-11-28T13:10:13.811Z,8.93
2018-11-28T13:12:42.068Z,10.33
2018-11-28T13:15:12.488Z,11.20
2018-11-28T13:17:40.777Z,11.67
2018-11-28T13:20:10.446Z,10.53
2018-11-28T13:22:38.751Z,10.27
2018-11-28T13:25:09.614Z,11.07
2018-11-28T13:27:37.849Z,10.40
2018-11-28T13:30:17.088Z,10.67
2018-11-28T13:32:46.250Z,10.73
2018-11-28T13:35:15.547Z,10.43
2018-11-28T13:37:44.923Z,10.30
2018-11-28T13:40:14.253Z,10.70
2018-11-28T13:42:42.884Z,10.97
2018-11-28T13:45:13.510Z,9.97
2018-11-28T13:47:43.316Z,10.03
2018-11-28T13:50:12.561Z,9.37
2018-11-28T13:52:40.772Z,10.17
2018-11-28T13:57:43.478Z,11.40
2018-11-28T14:00:11.787Z,9.60
2018-11-28T14:02:39.999Z,10.40
2018-11-28T14:05:09.926Z,11.27
2018-11-28T14:07:38.248Z,10.80
2018-11-28T14:10:10.148Z,9.53
2018-11-28T14:12:38.488Z,10.43
2018-11-28T14:15:10.501Z,9.43
2018-11-28T14:17:38.912Z,9.73
2018-11-28T14:20:09.008Z,9.93
2018-11-28T14:22:38.189Z,9.10
2018-11-28T14:25:08.164Z,9.83
2018-11-28T14:27:36.456Z,8.30
2018-11-28T14:30:10.501Z,10.55
2018-11-28T14:32:38.998Z,12.18
2018-11-28T14:35:08.957Z,10.10
2018-11-28T14:37:37.219Z,10.07
2018-11-28T14:40:14.536Z,10.13
2018-11-28T14:42:44.924Z,9.80
2018-11-28T14:45:15.400Z,9.00
2018-11-28T14:47:43.999Z,9.20
2018-11-28T14:50:21.052Z,10.20
2018-11-28T14:52:49.295Z,9.50
2018-11-28T14:55:19.178Z,8.90
2018-11-28T14:57:47.723Z,8.73
2018-11-28T15:00:17.250Z,9.90
2018-11-28T15:02:46.356Z,9.97
2018-11-28T15:05:21.252Z,9.03
2018-11-28T15:07:51.028Z,9.27
2018-11-28T15:10:23.712Z,8.83
2018-11-28T15:12:51.891Z,10.23
2018-11-28T15:15:20.129Z,10.07
2018-11-28T15:17:48.327Z,7.83
2018-11-28T15:20:16.473Z,8.33
2018-11-28T15:22:44.660Z,9.40
2018-11-28T15:25:12.832Z,9.83
2018-11-28T15:27:41.057Z,8.43
2018-11-28T15:30:09.384Z,7.77
2018-11-28T15:32:37.580Z,8.73
2018-11-28T15:35:05.860Z,9.27
2018-11-28T15:37:34.031Z,9.17
2018-11-28T15:40:02.191Z,9.20
2018-11-28T15:42:30.355Z,9.50
2018-11-28T15:44:58.528Z,8.37
2018-11-28T15:47:26.769Z,8.07
2018-11-28T15:49:54.983Z,9.67
2018-11-28T15:52:23.175Z,9.47
2018-11-28T15:54:51.357Z,8.07
2018-11-28T15:57:19.544Z,10.30
2018-11-28T15:59:47.731Z,9.93
2018-11-28T16:02:15.905Z,9.60
2018-11-28T16:04:44.180Z,8.80
2018-11-28T16:07:12.348Z,8.07
2018-11-28T16:09:46.064Z,10.43
2018-11-28T16:12:14.230Z,9.17
2018-11-28T16:14:42.431Z,8.70
2018-11-28T16:17:10.638Z,9.50
2018-11-28T16:19:38.824Z,9.50
2018-11-28T16:22:07.023Z,8.63
2018-11-28T16:24:35.204Z,9.30
2018-11-28T16:27:03.399Z,10.07
2018-11-28T16:29:31.592Z,8.83
2018-11-28T16:31:59.776Z,10.10
2018-11-28T16:34:27.993Z,9.63
2018-11-28T16:36:56.223Z,10.00
2018-11-28T16:39:24.404Z,8.40
2018-11-28T16:41:52.595Z,9.40
2018-11-28T16:44:20.784Z,7.70
2018-11-28T16:46:48.973Z,9.10
2018-11-28T16:49:17.158Z,10.53
2018-11-28T16:51:45.365Z,9.00
2018-11-28T16:54:13.547Z,11.47
2018-11-28T16:56:41.737Z,8.50
2018-11-28T16:59:09.920Z,9.87
2018-11-28T17:01:38.107Z,10.50
2018-11-28T17:04:06.348Z,9.73
2018-11-28T17:06:34.532Z,10.03
2018-11-28T17:09:02.720Z,9.50
2018-11-28T17:11:30.956Z,9.23
2018-11-28T17:13:59.144Z,8.87
2018-11-28T17:16:27.312Z,10.17
2018-11-28T17:18:55.507Z,10.93
2018-11-28T17:21:23.742Z,8.70
2018-11-28T17:23:51.931Z,9.30
2018-11-28T17:26:20.190Z,9.57
2018-11-28T17:28:48.402Z,9.87
2018-11-28T17:31:16.694Z,9.90
2018-11-28T17:33:44.819Z,10.70
2018-11-28T17:36:13.008Z,9.90
2018-11-28T17:38:41.184Z,11.23
2018-11-28T17:41:09.381Z,10.40
2018-11-28T17:43:37.573Z,10.13
2018-11-28T17:46:05.782Z,9.80
2018-11-28T17:48:33.974Z,11.60
2018-11-28T17:51:02.162Z,11.60
2018-11-28T17:53:30.401Z,11.60
2018-11-28T17:55:59.072Z,11.33
2018-11-28T17:58:27.255Z,11.63
2018-11-28T18:00:55.562Z,11.27
2018-11-28T18:03:23.731Z,9.80
2018-11-28T18:05:51.920Z,11.93
2018-11-28T18:08:20.088Z,10.87
2018-11-28T18:10:48.255Z,9.43
2018-11-28T18:13:17.472Z,11.53
2018-11-28T18:15:50.983Z,11.37
2018-11-28T18:18:20.483Z,13.20
2018-11-28T18:20:50.272Z,12.73
2018-11-28T18:23:16.906Z,12.63
2018-11-28T18:25:45.827Z,11.80
2018-11-28T18:28:14.004Z,13.07
2018-11-28T18:30:42.171Z,12.53
2018-11-28T18:33:11.463Z,12.03
2018-11-28T18:35:39.739Z,12.33
2018-11-28T18:38:07.944Z,12.37
2018-11-28T18:40:36.147Z,12.03
2018-11-28T18:43:04.738Z,12.17
2018-11-28T18:45:34.201Z,13.13
2018-11-28T18:48:02.421Z,12.10
2018-11-28T18:50:30.672Z,13.13
2018-11-28T18:52:58.887Z,12.03
2018-11-28T18:55:27.256Z,13.20
2018-11-28T18:57:56.189Z,12.20
2018-11-28T19:00:25.471Z,12.90
2018-11-28T19:02:54.167Z,13.07
2018-11-28T19:05:22.360Z,12.57
2018-11-28T19:07:50.557Z,14.17
2018-11-28T19:10:26.015Z,14.60
2018-11-28T19:12:48.670Z,12.93
2018-11-28T19:15:20.061Z,12.00
2018-11-28T19:17:48.725Z,12.13
2018-11-28T19:20:18.037Z,12.23
2018-11-28T19:22:46.832Z,12.60
2018-11-28T19:25:16.944Z,11.90
2018-11-28T19:27:45.636Z,11.17
2018-11-28T19:30:21.085Z,13.17
2018-11-28T19:32:49.292Z,13.03
2018-11-28T19:35:17.497Z,13.07
2018-11-28T19:37:45.705Z,12.93
2018-11-28T19:40:25.243Z,13.27
2018-11-28T19:42:53.463Z,11.73
2018-11-28T19:45:21.901Z,11.30
2018-11-28T19:47:50.113Z,11.20
2018-11-28T19:50:20.077Z,13.67
2018-11-28T19:52:48.278Z,14.07
2018-11-28T19:55:16.447Z,14.17
2018-11-28T19:57:44.636Z,12.30
2018-11-28T20:00:15.845Z,14.47
2018-11-28T20:02:44.645Z,14.50
2018-11-28T20:05:12.863Z,12.97
2018-11-28T20:07:43.242Z,14.20
2018-11-28T20:10:13.561Z,13.70
2018-11-28T20:12:41.752Z,13.83
2018-11-28T20:15:12.477Z,13.67
2018-11-28T20:17:40.660Z,11.53
2018-11-28T20:20:10.352Z,13.47
2018-11-28T20:22:38.556Z,12.70
2018-11-28T20:25:08.719Z,12.67
2018-11-28T20:27:37.005Z,13.03
2018-11-28T20:30:10.076Z,13.23
2018-11-28T20:32:38.392Z,12.03
2018-11-28T20:35:07.716Z,14.50
2018-11-28T20:37:35.928Z,13.03
2018-11-28T20:40:06.727Z,12.50
2018-11-28T20:42:34.937Z,12.67
2018-11-28T20:45:03.137Z,12.33
2018-11-28T20:47:31.388Z,13.07
2018-11-28T20:49:59.617Z,10.63
2018-11-28T20:52:27.792Z,11.03
2018-11-28T20:54:56.010Z,12.40
2018-11-28T20:57:24.200Z,11.27
2018-11-28T20:59:52.383Z,10.13
2018-11-28T21:02:20.626Z,12.33
2018-11-28T21:04:48.806Z,11.57
2018-11-28T21:07:17.100Z,12.17
2018-11-28T21:09:50.787Z,10.20
2018-11-28T21:12:19.000Z,10.83
2018-11-28T21:14:47.189Z,11.80
2018-11-28T21:17:15.445Z,11.93
2018-11-28T21:19:43.701Z,11.47
2018-11-28T21:22:11.920Z,11.00
2018-11-28T21:24:40.205Z,10.90
2018-11-28T21:27:08.454Z,10.60
2018-11-28T21:29:36.677Z,10.83
2018-11-28T21:32:04.919Z,10.17
2018-11-28T21:34:33.196Z,9.17
2018-11-28T21:37:01.369Z,8.60
2018-11-28T21:39:29.615Z,9.17
2018-11-28T21:41:57.790Z,8.97
2018-11-28T21:44:26.074Z,9.07
2018-11-28T21:46:54.212Z,10.03
2018-11-28T21:49:22.455Z,9.70
2018-11-28T21:51:50.655Z,8.47
2018-11-28T21:54:18.855Z,9.17
2018-11-28T21:56:47.049Z,8.73
2018-11-28T21:59:15.233Z,9.20
2018-11-28T22:01:43.408Z,10.37
2018-11-28T22:04:11.620Z,9.10
2018-11-28T22:06:39.786Z,8.80
2018-11-28T22:09:09.141Z,9.37
2018-11-28T22:11:37.421Z,10.37
2018-11-28T22:14:06.109Z,10.07
2018-11-28T22:16:34.292Z,9.03
2018-11-28T22:19:02.501Z,7.40
2018-11-28T22:21:30.704Z,9.33
2018-11-28T22:23:58.894Z,8.93
2018-11-28T22:26:27.093Z,8.67
2018-11-28T22:28:55.304Z,7.87
2018-11-28T22:31:23.473Z,8.73
2018-11-28T22:33:51.679Z,8.20
2018-11-28T22:36:19.872Z,8.33
2018-11-28T22:38:48.059Z,8.33
2018-11-28T22:41:16.260Z,8.13
2018-11-28T22:43:44.461Z,7.50
2018-11-28T22:46:12.643Z,7.13
2018-11-28T22:48:40.866Z,7.37
2018-11-28T22:51:09.056Z,7.73
2018-11-28T22:53:37.296Z,7.30
2018-11-28T22:56:05.587Z,7.33
2018-11-28T22:58:33.776Z,7.77
2018-11-28T23:01:07.972Z,8.17
2018-11-28T23:03:36.237Z,6.87
2018-11-28T23:06:04.755Z,8.03
2018-11-28T23:08:33.185Z,7.60
2018-11-28T23:11:01.448Z,6.73
2018-11-28T23:13:29.680Z,7.30
2018-11-28T23:15:57.864Z,8.27
2018-11-28T23:18:26.057Z,7.97
2018-11-28T23:20:54.244Z,8.33
2018-11-28T23:23:22.456Z,7.87
2018-11-28T23:25:50.648Z,8.17
2018-11-28T23:28:18.842Z,7.03
2018-11-28T23:30:47.028Z,8.53
2018-11-28T23:33:16.186Z,8.40
2018-11-28T23:35:43.439Z,6.93
2018-11-28T23:38:11.643Z,8.47
2018-11-28T23:40:39.829Z,7.37
2018-11-28T23:43:08.005Z,8.20
2018-11-28T23:45:36.209Z,6.27
2018-11-28T23:48:04.524Z,7.40
2018-11-28T23:50:32.724Z,7.23
2018-11-28T23:53:00.911Z,6.73
2018-11-28T23:55:30.272Z,8.30
2018-11-28T23:57:58.467Z,7.73
